Time;durP1;ratioP1;P1;durP2;ratioP2;P2;SDS_P1;SDS_P2;PMS_P1;PMS_P2;Temp;Humidity;BMP_temperature;BMP_pressure;BME280_temperature;BME280_humidity;BME280_pressure;Samples;Min_cycle;Max_cycle;Signal;HPM_P1;HPM_P2
2023/01/30 00:00:36;;;;;;;40.40;17.45;;;;;;;;;;5037433;28;20041;-80
2023/01/30 00:03:04;;;;;;;40.92;17.15;;;;;;;;;;5042215;28;20055;-80
2023/01/30 00:05:31;;;;;;;46.45;19.63;;;;;;;;;;5041762;28;20045;-78
2023/01/30 00:07:58;;;;;;;41.65;18.45;;;;;;;;;;5041153;28;20128;-80
2023/01/30 00:10:24;;;;;;;41.85;18.48;;;;;;;;;;5047076;22;20145;-76
2023/01/30 00:12:51;;;;;;;46.13;18.92;;;;;;;;;;5004527;28;20460;-75
2023/01/30 00:15:18;;;;;;;43.28;18.75;;;;;;;;;;4997371;28;20047;-77
2023/01/30 00:17:44;;;;;;;44.78;18.88;;;;;;;;;;5000954;28;20594;-77
2023/01/30 00:20:13;;;;;;;46.22;18.80;;;;;;;;;;4997586;28;20129;-76
2023/01/30 00:22:39;;;;;;;41.50;17.70;;;;;;;;;;4996982;28;20043;-77
2023/01/30 00:25:07;;;;;;;43.42;18.10;;;;;;;;;;4998127;28;20046;-76
2023/01/30 00:27:34;;;;;;;44.25;18.38;;;;;;;;;;4997476;28;20072;-77
2023/01/30 00:30:01;;;;;;;47.47;19.60;;;;;;;;;;4997783;28;20050;-76
2023/01/30 00:32:27;;;;;;;44.30;18.75;;;;;;;;;;4996843;28;20050;-76
2023/01/30 00:34:54;;;;;;;42.00;16.85;;;;;;;;;;4996876;28;20085;-77
2023/01/30 00:37:22;;;;;;;42.85;18.67;;;;;;;;;;4996420;28;20047;-77
2023/01/30 00:39:49;;;;;;;47.08;20.35;;;;;;;;;;4995283;28;20042;-76
2023/01/30 00:47:44;;;;;;;48.28;19.48;;;;;;;;;;4980142;28;20050;-76
2023/01/30 00:50:11;;;;;;;47.83;20.30;;;;;;;;;;4994508;28;20052;-76
2023/01/30 00:52:39;;;;;;;45.20;18.73;;;;;;;;;;4994126;28;20046;-77
2023/01/30 00:55:07;;;;;;;51.15;20.42;;;;;;;;;;4994258;28;20046;-77
2023/01/30 00:57:34;;;;;;;52.45;21.17;;;;;;;;;;4994158;28;20409;-77
2023/01/30 01:00:00;;;;;;;48.25;20.25;;;;;;;;;;4994687;28;20056;-76
2023/01/30 01:02:27;;;;;;;48.35;21.27;;;;;;;;;;4995669;28;20129;-76
2023/01/30 01:04:53;;;;;;;47.83;18.77;;;;;;;;;;4991484;28;20126;-76
2023/01/30 01:07:20;;;;;;;51.63;18.90;;;;;;;;;;4988568;28;20042;-77
2023/01/30 01:09:48;;;;;;;51.30;21.27;;;;;;;;;;4994138;28;20130;-77
2023/01/30 01:12:15;;;;;;;50.72;19.35;;;;;;;;;;4993988;28;20046;-76
2023/01/30 01:14:41;;;;;;;50.90;21.00;;;;;;;;;;4994245;28;20129;-78
2023/01/30 01:17:08;;;;;;;48.60;19.92;;;;;;;;;;4994467;28;20046;-77
2023/01/30 01:19:35;;;;;;;44.45;19.67;;;;;;;;;;4994026;28;20042;-78
2023/01/30 01:22:02;;;;;;;43.08;18.45;;;;;;;;;;4993701;28;20054;-77
2023/01/30 01:24:29;;;;;;;45.65;18.80;;;;;;;;;;4993658;28;20070;-77
2023/01/30 01:26:57;;;;;;;42.85;17.83;;;;;;;;;;4993833;28;20089;-77
2023/01/30 01:29:23;;;;;;;42.85;18.15;;;;;;;;;;4993474;28;20052;-77
2023/01/30 01:31:50;;;;;;;46.40;17.02;;;;;;;;;;4993411;28;20089;-77
2023/01/30 01:34:16;;;;;;;49.10;19.40;;;;;;;;;;4993571;28;20509;-76
2023/01/30 01:36:43;;;;;;;44.50;18.67;;;;;;;;;;4993634;28;20128;-77
2023/01/30 01:39:10;;;;;;;45.60;19.20;;;;;;;;;;4993496;28;20125;-77
2023/01/30 01:41:35;;;;;;;46.13;18.30;;;;;;;;;;4993148;28;20133;-76
2023/01/30 01:44:06;;;;;;;44.95;17.58;;;;;;;;;;4993877;28;20395;-76
2023/01/30 01:46:37;;;;;;;47.42;19.52;;;;;;;;;;4993198;28;20072;-76
2023/01/30 01:49:11;;;;;;;47.47;19.13;;;;;;;;;;4994238;28;20054;-76
2023/01/30 01:51:41;;;;;;;46.53;18.17;;;;;;;;;;4994774;28;20056;-76
2023/01/30 01:54:10;;;;;;;47.85;18.77;;;;;;;;;;4994140;28;20092;-77
2023/01/30 01:56:42;;;;;;;45.08;18.38;;;;;;;;;;4994142;28;20082;-76
2023/01/30 01:59:19;;;;;;;47.95;19.40;;;;;;;;;;4994600;28;20057;-75
2023/01/30 02:01:47;;;;;;;45.42;18.00;;;;;;;;;;4994039;28;20074;-75
2023/01/30 02:05:00;;;;;;;42.03;16.35;;;;;;;;;;4994033;28;20078;-76
2023/01/30 02:07:00;;;;;;;52.20;20.50;;;;;;;;;;4991543;28;20416;-76
2023/01/30 02:09:27;;;;;;;49.92;19.25;;;;;;;;;;4993234;28;20081;-75
2023/01/30 02:12:00;;;;;;;47.17;18.85;;;;;;;;;;4992424;28;20515;-76
2023/01/30 02:14:29;;;;;;;45.78;18.00;;;;;;;;;;4994095;28;20060;-75
2023/01/30 02:16:56;;;;;;;46.47;18.73;;;;;;;;;;4995861;28;20132;-75
2023/01/30 02:19:31;;;;;;;49.47;19.15;;;;;;;;;;4994388;28;20054;-77
2023/01/30 02:22:33;;;;;;;46.88;19.45;;;;;;;;;;4992827;28;20050;-76
2023/01/30 02:25:30;;;;;;;41.80;18.55;;;;;;;;;;4988100;28;20136;-76
2023/01/30 02:28:29;;;;;;;42.20;19.08;;;;;;;;;;4980203;28;20122;-77
2023/01/30 02:31:17;;;;;;;45.92;19.23;;;;;;;;;;4975212;28;20387;-77
2023/01/30 02:33:55;;;;;;;42.40;18.50;;;;;;;;;;4978581;28;20129;-77
2023/01/30 02:36:29;;;;;;;43.83;18.15;;;;;;;;;;4995708;28;20092;-77
2023/01/30 02:39:05;;;;;;;42.67;19.05;;;;;;;;;;4994467;28;20076;-76
2023/01/30 02:41:41;;;;;;;48.05;19.58;;;;;;;;;;4994942;28;20054;-77
2023/01/30 02:44:13;;;;;;;45.13;18.63;;;;;;;;;;4995037;28;20141;-77
2023/01/30 02:46:51;;;;;;;43.28;18.75;;;;;;;;;;4996104;28;20053;-77
2023/01/30 02:49:22;;;;;;;47.85;19.13;;;;;;;;;;4995042;28;20081;-76
2023/01/30 02:51:51;;;;;;;46.70;19.27;;;;;;;;;;4995258;28;20125;-77
2023/01/30 02:54:17;;;;;;;52.55;20.63;;;;;;;;;;4994956;28;20137;-77
2023/01/30 02:56:46;;;;;;;48.35;19.98;;;;;;;;;;4997117;28;20049;-76
2023/01/30 02:59:15;;;;;;;51.22;19.30;;;;;;;;;;4998262;28;20121;-77
2023/01/30 03:02:08;;;;;;;48.63;19.33;;;;;;;;;;4998665;28;20046;-76
2023/01/30 03:04:55;;;;;;;42.03;17.25;;;;;;;;;;4968352;28;20054;-76
2023/01/30 03:07:33;;;;;;;43.90;17.98;;;;;;;;;;4998726;28;20046;-77
2023/01/30 03:10:06;;;;;;;49.95;18.55;;;;;;;;;;4998175;28;20496;-77
2023/01/30 03:12:42;;;;;;;46.08;18.58;;;;;;;;;;4998579;28;20485;-77
2023/01/30 03:15:14;;;;;;;51.38;19.17;;;;;;;;;;4999269;28;20085;-77
2023/01/30 03:17:46;;;;;;;53.55;22.08;;;;;;;;;;4998277;28;20077;-76
2023/01/30 03:20:14;;;;;;;47.47;19.35;;;;;;;;;;4999016;28;20056;-76
2023/01/30 03:22:40;;;;;;;52.05;22.35;;;;;;;;;;4998532;28;20050;-76
2023/01/30 03:25:09;;;;;;;46.58;19.80;;;;;;;;;;4998927;28;20450;-76
2023/01/30 03:27:36;;;;;;;54.03;19.83;;;;;;;;;;4998211;28;20134;-76
2023/01/30 03:30:03;;;;;;;53.13;21.33;;;;;;;;;;4998554;28;20109;-76
2023/01/30 03:32:29;;;;;;;53.53;19.55;;;;;;;;;;4998814;28;20077;-76
2023/01/30 03:34:57;;;;;;;45.85;18.83;;;;;;;;;;4979182;28;20072;-76
2023/01/30 03:37:24;;;;;;;51.85;20.10;;;;;;;;;;4978415;28;20047;-76
2023/01/30 03:39:50;;;;;;;51.83;19.20;;;;;;;;;;4981584;28;20134;-76
2023/01/30 03:42:17;;;;;;;46.38;20.27;;;;;;;;;;4979150;28;20050;-77
2023/01/30 03:44:44;;;;;;;47.15;19.92;;;;;;;;;;4999366;28;20053;-76
2023/01/30 03:47:10;;;;;;;47.08;20.30;;;;;;;;;;5000053;28;20054;-76
2023/01/30 03:49:37;;;;;;;49.03;19.05;;;;;;;;;;4998813;28;20125;-76
2023/01/30 03:52:05;;;;;;;47.22;18.45;;;;;;;;;;4999085;28;20057;-78
2023/01/30 03:54:31;;;;;;;51.97;19.83;;;;;;;;;;4998985;28;20080;-76
2023/01/30 03:56:58;;;;;;;49.28;18.73;;;;;;;;;;4998653;28;20076;-77
2023/01/30 03:59:25;;;;;;;45.30;20.00;;;;;;;;;;4997345;28;20485;-76
2023/01/30 04:01:51;;;;;;;51.72;20.92;;;;;;;;;;4997705;28;20073;-77
2023/01/30 04:04:18;;;;;;;48.50;19.58;;;;;;;;;;4997729;28;20050;-77
2023/01/30 04:06:45;;;;;;;47.70;18.75;;;;;;;;;;4984281;28;20070;-77
2023/01/30 04:09:12;;;;;;;45.30;20.63;;;;;;;;;;4996020;28;20133;-77
2023/01/30 04:11:39;;;;;;;51.05;18.90;;;;;;;;;;4997568;28;20045;-77
2023/01/30 04:14:06;;;;;;;50.80;21.10;;;;;;;;;;4997195;28;20077;-78
2023/01/30 04:16:33;;;;;;;55.55;19.55;;;;;;;;;;4996699;28;20110;-76
2023/01/30 04:18:59;;;;;;;49.00;18.77;;;;;;;;;;4997308;28;20062;-77
2023/01/30 04:21:26;;;;;;;48.38;21.15;;;;;;;;;;4996696;28;20053;-77
2023/01/30 04:23:52;;;;;;;43.95;17.25;;;;;;;;;;4997612;28;20054;-77
2023/01/30 04:26:21;;;;;;;49.20;17.85;;;;;;;;;;4997902;28;20061;-77
2023/01/30 04:28:50;;;;;;;54.97;20.67;;;;;;;;;;4996721;28;20047;-77
2023/01/30 04:31:17;;;;;;;52.85;19.98;;;;;;;;;;4997063;28;20192;-77
2023/01/30 04:33:43;;;;;;;46.33;18.75;;;;;;;;;;4997470;28;20081;-76
2023/01/30 04:36:11;;;;;;;48.03;19.52;;;;;;;;;;4999726;28;20485;-77
2023/01/30 04:38:38;;;;;;;44.10;17.80;;;;;;;;;;4998237;28;20047;-77
2023/01/30 04:41:05;;;;;;;44.70;18.17;;;;;;;;;;4998509;28;20485;-77
2023/01/30 04:43:33;;;;;;;48.70;19.63;;;;;;;;;;4997330;28;20053;-77
2023/01/30 04:46:00;;;;;;;46.55;18.58;;;;;;;;;;4997129;28;20057;-77
2023/01/30 04:48:27;;;;;;;48.55;20.10;;;;;;;;;;4997052;28;20052;-77
2023/01/30 04:50:56;;;;;;;55.88;20.33;;;;;;;;;;4996506;28;20050;-77
2023/01/30 04:53:23;;;;;;;51.33;21.20;;;;;;;;;;4996004;28;20053;-77
2023/01/30 04:55:50;;;;;;;47.38;18.92;;;;;;;;;;4996855;28;20042;-77
2023/01/30 04:58:18;;;;;;;48.97;17.92;;;;;;;;;;4996565;28;20133;-77
2023/01/30 05:00:47;;;;;;;43.55;18.70;;;;;;;;;;4996319;28;20038;-77
2023/01/30 05:03:14;;;;;;;42.80;18.75;;;;;;;;;;4988600;28;20677;-77
2023/01/30 05:05:41;;;;;;;47.17;18.45;;;;;;;;;;4996199;28;20046;-77
2023/01/30 05:08:07;;;;;;;46.85;18.48;;;;;;;;;;4998987;28;20121;-76
2023/01/30 05:10:34;;;;;;;47.92;18.50;;;;;;;;;;4998853;28;20145;-76
2023/01/30 05:13:04;;;;;;;50.30;17.17;;;;;;;;;;4998053;28;20217;-76
2023/01/30 05:15:32;;;;;;;45.55;18.15;;;;;;;;;;4998380;28;20050;-77
2023/01/30 05:18:00;;;;;;;49.33;19.92;;;;;;;;;;4998317;28;20082;-77
2023/01/30 05:20:27;;;;;;;51.10;19.27;;;;;;;;;;4997496;28;20130;-75
2023/01/30 05:22:53;;;;;;;48.85;19.33;;;;;;;;;;4997952;28;20089;-77
2023/01/30 05:25:20;;;;;;;44.85;17.73;;;;;;;;;;4998093;28;20137;-77
2023/01/30 05:27:46;;;;;;;51.47;19.88;;;;;;;;;;4997739;28;20555;-77
2023/01/30 05:30:13;;;;;;;45.45;16.83;;;;;;;;;;4998303;28;20054;-77
2023/01/30 05:32:40;;;;;;;47.58;19.02;;;;;;;;;;4997364;28;20105;-77
2023/01/30 05:35:09;;;;;;;50.95;18.45;;;;;;;;;;4997009;28;20085;-76
2023/01/30 05:37:36;;;;;;;50.10;18.23;;;;;;;;;;4994520;28;20445;-76
2023/01/30 05:40:04;;;;;;;50.00;17.90;;;;;;;;;;4994505;28;20247;-76
2023/01/30 05:42:31;;;;;;;41.20;17.65;;;;;;;;;;4994405;28;20081;-76
2023/01/30 05:44:58;;;;;;;45.13;17.40;;;;;;;;;;4992735;28;20046;-77
2023/01/30 05:47:24;;;;;;;40.97;17.33;;;;;;;;;;4995258;28;20042;-76
2023/01/30 05:49:51;;;;;;;52.47;20.13;;;;;;;;;;4994736;28;20049;-76
2023/01/30 05:52:19;;;;;;;42.40;16.92;;;;;;;;;;4994651;28;20110;-76
2023/01/30 05:54:45;;;;;;;46.03;18.25;;;;;;;;;;4993919;28;20133;-76
2023/01/30 05:57:12;;;;;;;49.30;18.33;;;;;;;;;;4994710;28;20046;-76
2023/01/30 05:59:39;;;;;;;41.58;16.95;;;;;;;;;;4995383;28;20049;-77
2023/01/30 06:02:05;;;;;;;47.33;18.67;;;;;;;;;;4995581;28;20050;-77
2023/01/30 06:04:32;;;;;;;44.67;16.55;;;;;;;;;;4994297;28;20042;-77
2023/01/30 06:06:59;;;;;;;40.05;17.58;;;;;;;;;;4976336;28;20083;-76
2023/01/30 06:09:27;;;;;;;40.80;17.42;;;;;;;;;;4988939;28;20056;-76
2023/01/30 06:11:54;;;;;;;40.50;16.85;;;;;;;;;;5006212;22;20460;-75
2023/01/30 06:14:21;;;;;;;45.50;16.58;;;;;;;;;;4993482;28;20523;-75
2023/01/30 06:16:47;;;;;;;42.33;18.27;;;;;;;;;;5013308;28;20050;-74
2023/01/30 06:19:14;;;;;;;39.53;15.32;;;;;;;;;;5013958;28;20045;-74
2023/01/30 06:21:40;;;;;;;42.65;17.35;;;;;;;;;;5013202;28;20054;-74
2023/01/30 06:24:07;;;;;;;36.42;15.75;;;;;;;;;;5016781;28;20489;-74
2023/01/30 06:26:35;;;;;;;44.17;17.02;;;;;;;;;;5015581;28;20097;-73
2023/01/30 06:29:04;;;;;;;36.30;14.88;;;;;;;;;;5017433;28;20054;-74
2023/01/30 06:31:31;;;;;;;37.83;16.73;;;;;;;;;;5016213;28;20449;-75
2023/01/30 06:33:58;;;;;;;40.67;15.65;;;;;;;;;;5014043;28;20049;-73
2023/01/30 06:36:24;;;;;;;43.28;16.30;;;;;;;;;;5013457;28;20136;-75
2023/01/30 06:38:51;;;;;;;43.67;17.02;;;;;;;;;;5012360;28;20497;-74
2023/01/30 06:41:17;;;;;;;42.42;16.35;;;;;;;;;;5012216;28;20509;-74
2023/01/30 06:43:45;;;;;;;36.35;14.95;;;;;;;;;;5012690;28;20457;-74
2023/01/30 06:46:12;;;;;;;38.42;16.00;;;;;;;;;;5012190;28;20132;-74
2023/01/30 06:48:39;;;;;;;42.80;16.65;;;;;;;;;;5012427;28;20073;-74
2023/01/30 06:51:06;;;;;;;42.55;15.98;;;;;;;;;;5012438;28;20128;-74
2023/01/30 06:53:32;;;;;;;37.22;15.52;;;;;;;;;;5012569;28;20049;-74
2023/01/30 06:55:59;;;;;;;39.35;15.50;;;;;;;;;;5012571;28;20053;-74
2023/01/30 06:58:26;;;;;;;43.50;16.85;;;;;;;;;;5012679;28;20050;-74
2023/01/30 07:00:54;;;;;;;42.15;14.93;;;;;;;;;;5012376;28;20042;-75
2023/01/30 07:03:21;;;;;;;38.65;16.35;;;;;;;;;;5012454;28;20128;-75
2023/01/30 07:05:48;;;;;;;38.58;14.43;;;;;;;;;;4993179;28;20046;-75
2023/01/30 07:08:15;;;;;;;34.38;14.68;;;;;;;;;;5011189;28;20541;-74
2023/01/30 07:10:43;;;;;;;42.80;14.65;;;;;;;;;;5013112;28;20124;-74
2023/01/30 07:13:09;;;;;;;34.25;13.73;;;;;;;;;;5012408;28;20053;-73
2023/01/30 07:15:36;;;;;;;36.10;15.27;;;;;;;;;;5013117;28;20054;-75
2023/01/30 07:18:05;;;;;;;34.90;14.05;;;;;;;;;;5012365;28;20044;-75
2023/01/30 07:20:31;;;;;;;35.85;13.95;;;;;;;;;;5012535;28;20697;-75
2023/01/30 07:22:58;;;;;;;33.97;14.57;;;;;;;;;;5012252;28;20048;-75
2023/01/30 07:25:26;;;;;;;36.08;14.48;;;;;;;;;;5012937;28;20069;-74
2023/01/30 07:27:54;;;;;;;32.30;13.15;;;;;;;;;;5012258;28;20077;-76
2023/01/30 07:30:22;;;;;;;33.35;13.25;;;;;;;;;;5012793;28;20054;-76
2023/01/30 07:32:53;;;;;;;37.67;14.68;;;;;;;;;;5012658;28;20053;-76
2023/01/30 07:35:21;;;;;;;32.30;14.27;;;;;;;;;;5012333;28;20107;-76
2023/01/30 07:37:48;;;;;;;28.80;13.15;;;;;;;;;;5012148;28;20042;-75
2023/01/30 07:40:16;;;;;;;37.13;14.88;;;;;;;;;;5012819;28;20046;-75
2023/01/30 07:42:43;;;;;;;37.70;14.40;;;;;;;;;;5016378;28;20535;-75
2023/01/30 07:45:11;;;;;;;34.10;14.80;;;;;;;;;;5019963;28;20043;-75
2023/01/30 07:47:38;;;;;;;35.85;12.45;;;;;;;;;;5019752;28;20069;-74
2023/01/30 07:50:06;;;;;;;31.00;12.30;;;;;;;;;;5020403;28;20049;-75
2023/01/30 07:52:34;;;;;;;33.80;12.00;;;;;;;;;;5018608;28;20060;-76
2023/01/30 07:55:00;;;;;;;27.90;11.93;;;;;;;;;;5017789;28;20452;-75
2023/01/30 07:57:27;;;;;;;27.00;11.93;;;;;;;;;;5016446;28;20053;-75
2023/01/30 07:59:54;;;;;;;31.17;12.85;;;;;;;;;;5018703;28;20088;-76
2023/01/30 08:02:20;;;;;;;29.75;13.00;;;;;;;;;;5018916;28;20477;-75
2023/01/30 08:04:47;;;;;;;28.27;12.00;;;;;;;;;;5018516;28;20492;-74
2023/01/30 08:07:14;;;;;;;32.33;13.82;;;;;;;;;;5018180;28;20173;-74
2023/01/30 08:09:42;;;;;;;30.90;13.27;;;;;;;;;;5019247;28;20056;-74
2023/01/30 08:12:09;;;;;;;32.17;12.43;;;;;;;;;;5015765;28;20092;-73
2023/01/30 08:14:35;;;;;;;26.50;12.30;;;;;;;;;;5015266;28;20050;-74
2023/01/30 08:17:02;;;;;;;32.45;13.73;;;;;;;;;;5016094;28;20108;-75
2023/01/30 08:19:29;;;;;;;30.40;12.35;;;;;;;;;;5012629;28;20043;-74
2023/01/30 08:21:56;;;;;;;33.83;13.48;;;;;;;;;;5007262;28;20477;-74
2023/01/30 08:24:56;;;;;;;28.15;12.68;;;;;;;;;;5014902;28;20050;-74
2023/01/30 08:27:23;;;;;;;30.23;11.88;;;;;;;;;;5010080;28;20680;-75
2023/01/30 08:29:50;;;;;;;27.40;11.32;;;;;;;;;;5019066;28;20061;-76
2023/01/30 08:32:17;;;;;;;27.90;11.32;;;;;;;;;;5014668;28;20056;-75
2023/01/30 08:34:43;;;;;;;29.08;12.35;;;;;;;;;;5015591;28;20050;-74
2023/01/30 08:37:10;;;;;;;31.25;12.10;;;;;;;;;;5014198;28;20042;-75
2023/01/30 08:39:37;;;;;;;29.52;11.40;;;;;;;;;;5013708;28;20057;-74
2023/01/30 08:42:05;;;;;;;34.65;12.93;;;;;;;;;;5013626;28;20117;-75
2023/01/30 08:44:31;;;;;;;29.85;11.38;;;;;;;;;;5014801;28;20475;-74
2023/01/30 08:47:08;;;;;;;32.40;13.73;;;;;;;;;;5022133;28;20080;-74
2023/01/30 08:49:42;;;;;;;32.13;12.25;;;;;;;;;;5029280;28;20046;-75
2023/01/30 08:52:34;;;;;;;31.48;13.30;;;;;;;;;;5025968;28;20053;-74
2023/01/30 08:55:00;;;;;;;26.60;12.30;;;;;;;;;;5008279;28;20049;-74
2023/01/30 08:57:31;;;;;;;27.80;12.25;;;;;;;;;;5038170;28;20105;-75
2023/01/30 09:00:00;;;;;;;30.83;12.35;;;;;;;;;;5029772;28;20046;-74
2023/01/30 09:02:26;;;;;;;28.27;11.45;;;;;;;;;;5025174;28;20050;-72
2023/01/30 09:04:53;;;;;;;31.83;12.68;;;;;;;;;;5016254;28;20177;-73
2023/01/30 09:07:20;;;;;;;31.42;11.90;;;;;;;;;;5012696;28;20119;-74
2023/01/30 09:09:47;;;;;;;27.58;12.30;;;;;;;;;;5013427;28;20081;-75
2023/01/30 09:12:14;;;;;;;30.75;11.80;;;;;;;;;;5013108;28;20052;-75
2023/01/30 09:14:42;;;;;;;29.98;12.48;;;;;;;;;;5013108;28;20464;-77
2023/01/30 09:17:08;;;;;;;35.67;13.57;;;;;;;;;;5011914;28;20042;-75
2023/01/30 09:19:36;;;;;;;28.02;12.35;;;;;;;;;;5012845;28;20066;-77
2023/01/30 09:22:02;;;;;;;32.20;12.35;;;;;;;;;;5011857;28;20053;-75
2023/01/30 09:24:29;;;;;;;31.23;12.68;;;;;;;;;;5011809;28;20136;-74
2023/01/30 09:26:57;;;;;;;30.13;11.77;;;;;;;;;;5012825;28;20050;-77
2023/01/30 09:29:24;;;;;;;25.60;11.38;;;;;;;;;;5013537;28;20141;-74
2023/01/30 09:31:53;;;;;;;27.35;10.90;;;;;;;;;;5011830;28;20089;-75
2023/01/30 09:34:19;;;;;;;28.10;12.52;;;;;;;;;;5012053;28;20128;-74
2023/01/30 09:36:46;;;;;;;27.20;11.45;;;;;;;;;;5012359;28;20103;-75
2023/01/30 09:39:13;;;;;;;30.45;12.38;;;;;;;;;;5011647;28;20045;-74
2023/01/30 09:41:52;;;;;;;31.60;12.60;;;;;;;;;;5011600;28;20050;-75
2023/01/30 09:44:51;;;;;;;29.98;10.65;;;;;;;;;;5012127;28;20057;-74
2023/01/30 09:47:27;;;;;;;32.55;11.95;;;;;;;;;;5011858;28;20054;-74
2023/01/30 09:50:05;;;;;;;28.73;11.05;;;;;;;;;;5012088;28;20045;-73
2023/01/30 09:52:40;;;;;;;26.08;10.70;;;;;;;;;;5011744;28;20133;-74
2023/01/30 09:55:17;;;;;;;27.20;11.45;;;;;;;;;;5010578;28;20052;-74
2023/01/30 09:57:44;;;;;;;26.40;11.80;;;;;;;;;;5010688;28;20412;-74
2023/01/30 10:00:17;;;;;;;26.75;10.70;;;;;;;;;;5011001;28;20113;-74
2023/01/30 10:02:53;;;;;;;25.33;10.88;;;;;;;;;;5015386;28;20096;-73
2023/01/30 10:05:19;;;;;;;28.05;10.20;;;;;;;;;;5004711;28;20050;-74
2023/01/30 10:08:05;;;;;;;28.98;12.20;;;;;;;;;;5002481;28;20073;-75
2023/01/30 10:10:45;;;;;;;27.92;10.10;;;;;;;;;;5011995;28;20084;-77
2023/01/30 10:13:25;;;;;;;27.08;11.02;;;;;;;;;;5010149;28;20042;-76
2023/01/30 10:15:59;;;;;;;25.65;10.32;;;;;;;;;;5010875;28;20042;-76
2023/01/30 10:18:46;;;;;;;23.23;9.98;;;;;;;;;;5019927;28;20056;-75
2023/01/30 10:21:21;;;;;;;24.05;9.25;;;;;;;;;;5019389;28;20386;-76
2023/01/30 10:24:04;;;;;;;18.50;8.63;;;;;;;;;;5011271;28;20049;-77
2023/01/30 10:26:33;;;;;;;21.50;9.02;;;;;;;;;;4998654;28;20456;-75
2023/01/30 10:29:04;;;;;;;24.17;9.27;;;;;;;;;;5007458;28;20448;-75
2023/01/30 10:31:34;;;;;;;;;;;;;;;;;;5012629;28;20099;-75
2023/01/30 10:34:04;;;;;;;26.07;9.47;;;;;;;;;;5011593;28;19928;-77
2023/01/30 10:36:40;;;;;;;21.50;8.40;;;;;;;;;;5011181;28;20832;-77
2023/01/30 10:39:21;;;;;;;19.20;8.27;;;;;;;;;;5016241;28;20053;-77
2023/01/30 10:41:54;;;;;;;23.85;9.05;;;;;;;;;;5011191;28;20042;-78
2023/01/30 10:44:25;;;;;;;26.88;8.13;;;;;;;;;;5011170;28;20046;-76
2023/01/30 10:47:11;;;;;;;25.40;9.68;;;;;;;;;;5011379;28;20508;-77
2023/01/30 10:49:44;;;;;;;18.90;7.72;;;;;;;;;;5011361;28;20080;-75
2023/01/30 10:52:26;;;;;;;19.85;7.63;;;;;;;;;;5011634;28;20054;-75
2023/01/30 10:55:01;;;;;;;19.98;8.65;;;;;;;;;;4997552;28;20551;-76
2023/01/30 10:57:42;;;;;;;19.02;7.70;;;;;;;;;;5010232;28;20135;-76
2023/01/30 11:00:20;;;;;;;21.33;8.27;;;;;;;;;;5011221;28;20104;-75
2023/01/30 11:03:00;;;;;;;18.40;8.10;;;;;;;;;;5010842;28;20058;-74
2023/01/30 11:05:39;;;;;;;20.73;8.73;;;;;;;;;;5010531;28;20050;-74
2023/01/30 11:08:17;;;;;;;22.25;8.70;;;;;;;;;;5009132;28;20048;-74
2023/01/30 11:10:44;;;;;;;21.13;7.68;;;;;;;;;;5008139;28;20053;-74
2023/01/30 11:13:16;;;;;;;19.70;8.30;;;;;;;;;;5009093;28;20461;-74
2023/01/30 11:15:46;;;;;;;20.77;8.38;;;;;;;;;;5009826;28;20421;-75
2023/01/30 11:18:14;;;;;;;21.13;7.85;;;;;;;;;;5009128;28;20046;-76
2023/01/30 11:20:45;;;;;;;19.83;7.53;;;;;;;;;;5014400;28;20108;-74
2023/01/30 11:23:25;;;;;;;23.70;10.70;;;;;;;;;;5013838;28;20069;-74
2023/01/30 11:25:55;;;;;;;20.90;8.48;;;;;;;;;;5013833;28;20408;-76
2023/01/30 11:28:23;;;;;;;16.90;8.07;;;;;;;;;;5014023;28;20045;-74
2023/01/30 11:34:15;;;;;;;18.13;7.72;;;;;;;;;;5009738;28;20037;-76
2023/01/30 11:36:45;;;;;;;19.63;8.05;;;;;;;;;;5015072;28;20056;-74
2023/01/30 11:39:22;;;;;;;19.90;7.03;;;;;;;;;;5014898;28;20042;-75
2023/01/30 11:42:00;;;;;;;21.27;8.02;;;;;;;;;;5024785;28;20070;-76
2023/01/30 11:44:28;;;;;;;16.90;6.50;;;;;;;;;;5019589;28;20044;-76
2023/01/30 11:46:59;;;;;;;20.30;7.88;;;;;;;;;;5020813;28;20057;-77
2023/01/30 11:49:32;;;;;;;16.17;6.55;;;;;;;;;;5017765;28;20053;-79
2023/01/30 11:52:01;;;;;;;15.07;6.68;;;;;;;;;;5015595;28;20575;-75
2023/01/30 11:54:31;;;;;;;16.70;6.90;;;;;;;;;;4993504;28;20050;-74
2023/01/30 11:57:01;;;;;;;18.55;7.03;;;;;;;;;;5007687;28;20096;-77
2023/01/30 11:59:33;;;;;;;17.48;6.88;;;;;;;;;;5014207;28;20042;-75
2023/01/30 12:02:15;;;;;;;15.50;6.63;;;;;;;;;;5017790;28;20050;-76
2023/01/30 12:04:58;;;;;;;;;;;;;;;;;;;;;
2023/01/30 12:07:28;;;;;;;16.95;6.18;;;;;;;;;;5014478;28;20514;-75
2023/01/30 12:09:56;;;;;;;18.27;7.25;;;;;;;;;;5013000;28;20065;-74
2023/01/30 12:12:32;;;;;;;14.65;6.40;;;;;;;;;;5013292;28;20459;-74
2023/01/30 12:15:12;;;;;;;20.98;6.63;;;;;;;;;;5012708;28;20109;-74
2023/01/30 12:17:44;;;;;;;13.45;6.40;;;;;;;;;;5012466;28;20052;-74
2023/01/30 12:20:23;;;;;;;13.43;6.60;;;;;;;;;;5013543;28;20124;-74
2023/01/30 12:23:04;;;;;;;17.08;6.20;;;;;;;;;;4993349;28;20043;-73
2023/01/30 12:25:38;;;;;;;15.15;6.47;;;;;;;;;;4993632;28;20671;-73
2023/01/30 12:28:14;;;;;;;14.65;6.30;;;;;;;;;;5051705;22;20041;-56
2023/01/30 12:30:47;;;;;;;13.82;6.38;;;;;;;;;;5011919;28;20054;-54
2023/01/30 12:33:15;;;;;;;17.00;6.30;;;;;;;;;;4992764;28;20046;-55
2023/01/30 12:35:52;;;;;;;15.20;6.43;;;;;;;;;;4992604;28;20077;-58
2023/01/30 12:38:38;;;;;;;16.83;6.40;;;;;;;;;;4996002;28;20411;-58
2023/01/30 12:41:24;;;;;;;15.38;6.13;;;;;;;;;;5012557;28;20141;-57
2023/01/30 12:44:07;;;;;;;18.33;6.47;;;;;;;;;;4998953;28;20526;-57
2023/01/30 12:46:47;;;;;;;17.65;6.35;;;;;;;;;;5000018;28;20051;-59
2023/01/30 12:49:41;;;;;;;17.67;6.45;;;;;;;;;;5007429;28;20368;-57
2023/01/30 12:52:39;;;;;;;14.55;6.25;;;;;;;;;;5011796;28;20050;-56
2023/01/30 12:55:21;;;;;;;13.18;6.18;;;;;;;;;;4995070;28;20139;-56
2023/01/30 12:57:53;;;;;;;15.30;6.10;;;;;;;;;;4988500;28;20105;-55
2023/01/30 13:00:33;;;;;;;14.45;5.85;;;;;;;;;;4975454;28;20481;-58
2023/01/30 13:03:17;;;;;;;16.33;5.68;;;;;;;;;;4975796;28;20408;-58
2023/01/30 13:05:52;;;;;;;17.00;5.78;;;;;;;;;;4994958;28;20058;-58
2023/01/30 13:08:32;;;;;;;18.00;6.53;;;;;;;;;;4994385;28;20088;-58
2023/01/30 13:11:08;;;;;;;14.40;5.72;;;;;;;;;;4991686;28;20431;-56
2023/01/30 13:13:44;;;;;;;14.07;7.28;;;;;;;;;;4973605;28;20500;-55
2023/01/30 13:16:18;;;;;;;13.43;5.72;;;;;;;;;;4990536;28;20050;-55
2023/01/30 13:18:51;;;;;;;15.38;6.72;;;;;;;;;;4999896;28;20085;-58
2023/01/30 13:21:24;;;;;;;17.15;6.25;;;;;;;;;;4991311;28;20494;-55
2023/01/30 13:24:04;;;;;;;15.30;6.30;;;;;;;;;;4991688;28;20535;-56
2023/01/30 13:26:38;;;;;;;14.13;5.70;;;;;;;;;;4996309;28;20120;-56
2023/01/30 13:29:13;;;;;;;13.55;5.32;;;;;;;;;;4998597;28;20511;-57
2023/01/30 13:31:46;;;;;;;14.55;5.63;;;;;;;;;;4999094;28;20565;-56
2023/01/30 13:34:21;;;;;;;12.43;5.82;;;;;;;;;;4992796;28;20051;-58
2023/01/30 13:36:54;;;;;;;13.35;6.35;;;;;;;;;;4989594;28;20096;-58
2023/01/30 13:39:32;;;;;;;12.70;5.47;;;;;;;;;;4999611;28;20049;-57
2023/01/30 13:42:03;;;;;;;12.57;5.93;;;;;;;;;;4997222;28;20050;-59
2023/01/30 13:44:32;;;;;;;13.25;5.40;;;;;;;;;;4985087;28;20042;-58
2023/01/30 13:47:16;;;;;;;13.80;5.35;;;;;;;;;;4983143;28;20412;-57
2023/01/30 13:49:49;;;;;;;14.15;5.40;;;;;;;;;;4989332;28;20046;-59
2023/01/30 13:52:27;;;;;;;13.63;5.45;;;;;;;;;;4989721;28;20050;-58
2023/01/30 13:55:02;;;;;;;13.43;5.40;;;;;;;;;;5006976;28;20050;-56
2023/01/30 13:57:43;;;;;;;13.27;5.75;;;;;;;;;;5001249;28;20054;-58
2023/01/30 14:00:29;;;;;;;14.93;5.85;;;;;;;;;;4989076;28;20054;-58
2023/01/30 14:03:16;;;;;;;15.63;5.88;;;;;;;;;;4989669;28;20077;-59
2023/01/30 14:06:22;;;;;;;14.15;5.80;;;;;;;;;;4980669;28;20046;-57
2023/01/30 14:08:58;;;;;;;13.98;6.07;;;;;;;;;;4990208;28;20046;-57
2023/01/30 14:11:48;;;;;;;14.27;5.63;;;;;;;;;;4974167;28;20346;-54
2023/01/30 14:14:35;;;;;;;13.73;5.45;;;;;;;;;;4992522;28;20092;-57
2023/01/30 14:17:11;;;;;;;15.27;5.88;;;;;;;;;;4996134;28;20054;-52
2023/01/30 14:19:42;;;;;;;12.38;5.45;;;;;;;;;;4990958;28;20047;-58
2023/01/30 14:22:28;;;;;;;14.32;6.25;;;;;;;;;;4998481;28;20092;-57
2023/01/30 14:25:37;;;;;;;12.50;5.53;;;;;;;;;;4991074;28;20112;-56
2023/01/30 14:28:50;;;;;;;13.70;5.68;;;;;;;;;;4970885;28;20116;-60
2023/01/30 14:31:51;;;;;;;16.55;6.47;;;;;;;;;;4991296;28;20046;-53
2023/01/30 14:34:50;;;;;;;13.02;5.60;;;;;;;;;;4979096;28;20459;-58
2023/01/30 14:37:45;;;;;;;14.35;6.50;;;;;;;;;;4973591;28;20049;-56
2023/01/30 14:40:41;;;;;;;14.00;5.20;;;;;;;;;;4990978;28;20420;-57
2023/01/30 14:43:39;;;;;;;14.38;5.72;;;;;;;;;;5002891;28;20085;-57
2023/01/30 14:46:11;;;;;;;12.55;5.60;;;;;;;;;;4976423;28;20054;-54
2023/01/30 14:48:45;;;;;;;14.77;5.25;;;;;;;;;;4980512;28;20134;-56
2023/01/30 14:51:23;;;;;;;12.85;5.95;;;;;;;;;;4989359;28;20053;-61
2023/01/30 14:53:54;;;;;;;16.85;7.30;;;;;;;;;;4974121;28;20551;-58
2023/01/30 14:56:38;;;;;;;15.47;7.70;;;;;;;;;;4974896;28;20050;-57